ESSD/BLE METAR and TAF weather

Enter ICAO airport designator
Station Type Date Time Source
ESSD METAR 2018/06/25 16:50 UTC NOAA

ESSD 251650Z 35006KT CAVOK 23/07 Q1017


Station Type Date Time Source
ESSD Decoded METAR 2018/06/25 16:50 UTC NOAA

Borlange, Sweden (ESSD) 60-26N 015-31E 0M
Jun 25, 2018 - 12:50 PM EDT / 2018.06.25 1650 UTC
Wind: from the N (350 degrees) at 7 MPH (6 KT):0
Visibility: greater than 7 mile(s):0
Temperature: 73 F (23 C)
Dew Point: 44 F (7 C)
Relative Humidity: 35%
Pressure (altimeter): 30.03 in. Hg (1017 hPa)
ob: ESSD 251650Z 35006KT CAVOK 23/07 Q1017
cycle: 17

Station Type Date Time Source
ESSD TAF 2018/05/02 04:48 UTC NOAA

TAF TAF ESSD 020320Z 0204/0412 27008KT 9999 BKN019 PROB40 0204/0209 BKN006


Example: see airport list